Time;durP1;ratioP1;P1;durP2;ratioP2;P2;SDS_P1;SDS_P2;PMS_P1;PMS_P2;Temp;Humidity;BMP_temperature;BMP_pressure;BME280_temperature;BME280_humidity;BME280_pressure;Samples;Min_cycle;Max_cycle;Signal;HPM_P1;HPM_P2
2020/12/01 00:02:05;;;;;;;15.47;6.30;;;;;;;4.06;100.00;100466.88;5015080;28;20041;-65
2020/12/01 00:04:31;;;;;;;13.23;6.03;;;;;;;4.12;100.00;100466.16;5011815;28;20037;-63
2020/12/01 00:06:56;;;;;;;14.13;5.77;;;;;;;4.09;100.00;100461.75;5014273;28;20060;-66
2020/12/01 00:09:21;;;;;;;18.93;6.90;;;;;;;4.13;100.00;100467.03;5012013;28;20029;-64
2020/12/01 00:11:47;;;;;;;16.93;6.83;;;;;;;4.09;100.00;100466.06;5017496;28;20104;-64
2020/12/01 00:14:12;;;;;;;16.97;7.30;;;;;;;4.16;100.00;100467.09;5013088;28;20481;-65
2020/12/01 00:16:38;;;;;;;14.73;6.57;;;;;;;4.15;100.00;100460.19;5011543;28;20416;-65
2020/12/01 00:19:04;;;;;;;14.57;6.67;;;;;;;4.17;100.00;100468.84;5016984;28;20037;-63
2020/12/01 00:21:29;;;;;;;13.00;4.93;;;;;;;4.21;100.00;100468.06;5015717;28;20042;-64
2020/12/01 00:23:54;;;;;;;17.50;6.63;;;;;;;4.23;100.00;100463.78;5013317;28;20034;-65
2020/12/01 00:26:20;;;;;;;16.73;7.07;;;;;;;4.24;100.00;100455.19;5011990;28;20022;-65
2020/12/01 00:28:47;;;;;;;16.73;6.43;;;;;;;4.29;100.00;100458.78;5015165;28;20025;-64
2020/12/01 00:31:14;;;;;;;17.33;7.03;;;;;;;4.27;100.00;100450.09;5008560;28;20073;-66
2020/12/01 00:33:40;;;;;;;14.83;6.33;;;;;;;4.28;100.00;100451.84;5025859;28;20567;-64
2020/12/01 00:36:05;;;;;;;13.37;6.37;;;;;;;4.28;100.00;100437.19;5019833;28;20323;-66
2020/12/01 00:38:31;;;;;;;14.83;6.30;;;;;;;4.27;100.00;100434.56;5014463;28;20115;-65
2020/12/01 00:40:56;;;;;;;18.37;6.93;;;;;;;4.31;100.00;100438.97;5018643;28;20037;-65
2020/12/01 00:43:22;;;;;;;15.70;6.33;;;;;;;4.34;100.00;100432.13;5011517;28;20488;-65
2020/12/01 00:45:48;;;;;;;17.83;7.00;;;;;;;4.35;100.00;100438.19;5015083;28;20038;-64
2020/12/01 00:48:15;;;;;;;15.07;6.83;;;;;;;4.38;100.00;100433.09;5011156;28;20045;-65
2020/12/01 00:50:40;;;;;;;16.93;6.57;;;;;;;4.38;100.00;100433.09;5010395;28;20029;-64
2020/12/01 00:53:06;;;;;;;16.33;6.87;;;;;;;4.36;100.00;100427.91;5020860;28;20308;-65
2020/12/01 00:55:31;;;;;;;14.37;6.43;;;;;;;4.41;100.00;100425.41;5009632;28;20698;-66
2020/12/01 00:57:57;;;;;;;14.30;5.90;;;;;;;4.39;100.00;100419.31;5014313;28;20025;-65
2020/12/01 01:00:26;;;;;;;14.83;6.47;;;;;;;4.43;100.00;100418.53;5010981;28;20034;-63
2020/12/01 01:02:52;;;;;;;14.00;5.90;;;;;;;4.43;100.00;100426.31;5012071;28;20065;-65
2020/12/01 01:05:18;;;;;;;15.50;5.53;;;;;;;4.48;100.00;100424.66;5024528;28;20422;-65
2020/12/01 01:07:43;;;;;;;14.37;5.77;;;;;;;4.45;100.00;100419.44;5011416;28;20036;-65
2020/12/01 01:10:16;;;;;;;15.20;6.23;;;;;;;4.46;100.00;100421.19;5011690;28;20277;-64
2020/12/01 01:12:42;;;;;;;12.97;5.90;;;;;;;4.51;100.00;100419.59;5008102;28;20117;-64
2020/12/01 01:15:07;;;;;;;12.63;5.57;;;;;;;4.50;100.00;100416.97;5010040;28;20834;-64
2020/12/01 01:17:33;;;;;;;10.50;4.70;;;;;;;4.54;100.00;100421.34;5015060;28;20059;-65
2020/12/01 01:19:58;;;;;;;14.30;5.63;;;;;;;4.50;100.00;100411.78;5010221;28;20037;-65
2020/12/01 01:22:23;;;;;;;12.13;5.97;;;;;;;4.52;100.00;100415.28;5008280;28;20038;-65
2020/12/01 01:24:49;;;;;;;16.57;6.63;;;;;;;4.50;100.00;100412.66;5012662;28;20032;-64
2020/12/01 01:27:14;;;;;;;15.07;5.67;;;;;;;4.54;100.00;100404.09;5017253;28;20029;-64
2020/12/01 01:29:39;;;;;;;13.33;5.37;;;;;;;4.58;100.00;100405.91;5008962;28;20045;-65
2020/12/01 01:32:05;;;;;;;11.63;4.53;;;;;;;4.59;100.00;100412.81;5009631;28;20524;-65
2020/12/01 01:34:30;;;;;;;11.03;4.60;;;;;;;4.57;100.00;100409.34;5008117;28;20217;-65
2020/12/01 01:36:55;;;;;;;12.73;4.60;;;;;;;4.63;100.00;100409.47;5025684;28;20665;-64
2020/12/01 01:39:21;;;;;;;14.50;5.80;;;;;;;4.59;100.00;100410.25;5011515;28;20052;-65
2020/12/01 01:41:46;;;;;;;13.00;5.60;;;;;;;4.57;100.00;100408.47;5008633;28;20065;-64
2020/12/01 01:44:25;;;;;;;11.33;5.43;;;;;;;4.62;100.00;100412.91;5023015;28;20037;-65
2020/12/01 01:46:53;;;;;;;15.00;5.93;;;;;;;4.62;100.00;100415.50;5010232;28;20034;-65
2020/12/01 01:49:22;;;;;;;14.23;5.30;;;;;;;4.66;100.00;100406.94;5009262;28;20426;-65
2020/12/01 01:51:53;;;;;;;13.40;5.43;;;;;;;4.68;100.00;100402.66;5013099;28;20273;-64
2020/12/01 01:54:21;;;;;;;14.87;6.43;;;;;;;4.74;100.00;100396.75;5011358;28;20279;-65
2020/12/01 01:56:51;;;;;;;12.67;5.47;;;;;;;4.68;100.00;100402.66;5022192;28;20288;-64
2020/12/01 01:59:17;;;;;;;12.03;5.87;;;;;;;4.68;100.00;100397.47;5014247;28;20292;-65
2020/12/01 02:01:43;;;;;;;17.17;6.83;;;;;;;4.67;100.00;100406.09;5016237;28;20945;-65
2020/12/01 02:04:12;;;;;;;15.73;5.93;;;;;;;4.75;100.00;100395.03;5007330;28;20284;-65
2020/12/01 02:06:52;;;;;;;11.33;4.60;;;;;;;4.76;100.00;100405.44;5020419;28;20383;-64
2020/12/01 02:09:46;;;;;;;13.77;5.73;;;;;;;4.72;100.00;100393.22;5006399;28;20272;-65
2020/12/01 02:12:14;;;;;;;14.93;6.20;;;;;;;4.74;100.00;100395.88;5011686;28;20281;-64
2020/12/01 02:14:55;;;;;;;11.73;4.37;;;;;;;4.77;100.00;100390.75;5013017;28;20671;-63
2020/12/01 02:17:25;;;;;;;12.67;5.23;;;;;;;4.79;100.00;100392.53;5016419;28;20795;-64
2020/12/01 02:19:55;;;;;;;14.63;5.97;;;;;;;4.79;100.00;100389.06;5010596;28;20906;-64
2020/12/01 02:22:23;;;;;;;13.60;5.30;;;;;;;4.77;100.00;100388.16;5018257;28;20330;-62
2020/12/01 02:24:50;;;;;;;13.20;5.43;;;;;;;4.81;100.00;100388.25;5018702;28;20939;-66
2020/12/01 02:27:19;;;;;;;12.70;5.50;;;;;;;4.82;100.00;100384.81;5008847;28;20276;-64
2020/12/01 02:29:48;;;;;;;14.27;6.03;;;;;;;4.80;100.00;100390.81;5009086;28;20799;-64
2020/12/01 02:32:14;;;;;;;13.63;5.50;;;;;;;4.82;100.00;100389.13;5016230;28;20346;-64
2020/12/01 02:34:43;;;;;;;15.20;5.00;;;;;;;4.87;100.00;100392.69;5014272;28;20372;-63
2020/12/01 02:37:11;;;;;;;12.10;4.67;;;;;;;4.88;100.00;100389.25;5014527;28;20295;-64
2020/12/01 02:39:37;;;;;;;10.63;4.60;;;;;;;4.92;100.00;100388.47;5010384;28;20289;-64
2020/12/01 02:42:08;;;;;;;9.87;4.07;;;;;;;4.93;100.00;100387.59;5014345;28;20284;-64
2020/12/01 02:44:33;;;;;;;12.83;4.87;;;;;;;4.89;100.00;100380.63;5006049;28;20057;-64
2020/12/01 02:47:02;;;;;;;9.47;4.57;;;;;;;4.93;100.00;100379.84;5023551;28;20307;-63
2020/12/01 02:49:27;;;;;;;11.53;4.73;;;;;;;4.89;100.00;100384.09;5015421;28;20060;-64
2020/12/01 02:51:53;;;;;;;11.90;5.13;;;;;;;4.96;100.00;100377.28;5014116;28;20284;-64
2020/12/01 02:54:18;;;;;;;11.63;4.63;;;;;;;4.96;100.00;100377.28;5008436;28;20042;-64
2020/12/01 02:56:45;;;;;;;9.90;4.10;;;;;;;4.96;100.00;100374.69;5008666;28;20030;-64
2020/12/01 02:59:12;;;;;;;11.67;5.37;;;;;;;4.93;100.00;100379.84;5006591;28;20057;-65
2020/12/01 03:01:37;;;;;;;11.10;4.60;;;;;;;4.95;100.00;100380.72;5011134;28;20805;-63
2020/12/01 03:04:02;;;;;;;9.23;4.10;;;;;;;5.00;100.00;100380.00;5008040;28;20277;-64
2020/12/01 03:06:28;;;;;;;11.60;4.60;;;;;;;5.00;100.00;100373.94;5007356;28;20065;-64
2020/12/01 03:08:53;;;;;;;15.90;5.20;;;;;;;5.01;100.00;100375.69;5013380;28;20403;-63
2020/12/01 03:11:19;;;;;;;12.60;4.50;;;;;;;5.06;100.00;100381.81;5010818;28;20583;-63
2020/12/01 03:13:44;;;;;;;10.93;4.37;;;;;;;5.08;100.00;100382.69;5015486;28;20105;-63
2020/12/01 03:16:11;;;;;;;9.73;4.17;;;;;;;5.02;100.00;100380.03;5009878;28;20029;-63
2020/12/01 03:18:38;;;;;;;13.60;4.63;;;;;;;5.05;100.00;100387.84;5018729;28;20067;-64
2020/12/01 03:21:04;;;;;;;11.27;4.50;;;;;;;5.05;100.00;100390.44;5018581;28;20281;-64
2020/12/01 03:23:30;;;;;;;15.67;5.30;;;;;;;5.04;100.00;100386.09;5024376;28;20386;-64
2020/12/01 03:25:55;;;;;;;15.43;5.33;;;;;;;5.08;100.00;100393.06;5008399;28;20030;-64
2020/12/01 03:28:21;;;;;;;11.70;4.53;;;;;;;5.11;100.00;100387.97;5014540;28;20088;-65
2020/12/01 03:30:46;;;;;;;13.13;5.07;;;;;;;5.08;100.00;100387.88;5012484;28;20489;-63
2020/12/01 03:33:12;;;;;;;12.63;4.67;;;;;;;5.11;100.00;100380.19;5007615;28;20049;-64
2020/12/01 03:35:37;;;;;;;15.00;4.90;;;;;;;5.11;100.00;100384.50;5011843;28;20029;-67
2020/12/01 03:38:03;;;;;;;14.00;4.53;;;;;;;5.17;100.00;100384.59;5011599;28;20022;-67
2020/12/01 03:40:28;;;;;;;15.00;5.43;;;;;;;5.18;100.00;100386.34;5013487;28;20033;-66
2020/12/01 03:42:54;;;;;;;14.27;4.43;;;;;;;5.20;100.00;100388.09;5019539;28;20029;-65
2020/12/01 03:45:19;;;;;;;14.43;4.83;;;;;;;5.21;100.00;100395.06;5015581;28;20104;-63
2020/12/01 03:47:45;;;;;;;16.17;4.87;;;;;;;5.19;100.00;100386.38;5007500;28;20024;-64
2020/12/01 03:50:12;;;;;;;16.43;5.00;;;;;;;5.25;100.00;100386.50;5009653;28;20095;-66
2020/12/01 03:52:37;;;;;;;16.63;5.13;;;;;;;5.28;100.00;100383.06;5018311;28;20038;-64
2020/12/01 03:55:04;;;;;;;15.90;5.50;;;;;;;5.34;100.00;100384.91;5007547;28;20293;-66
2020/12/01 03:57:30;;;;;;;17.13;5.73;;;;;;;5.29;100.00;100383.09;5007415;28;20145;-66
2020/12/01 03:59:55;;;;;;;16.80;5.50;;;;;;;5.32;100.00;100384.00;5012664;28;20276;-66
2020/12/01 04:02:20;;;;;;;19.63;6.13;;;;;;;5.36;100.00;100391.00;5007686;28;20401;-66
2020/12/01 04:04:46;;;;;;;18.27;5.67;;;;;;;5.42;100.00;100386.78;5014765;28;20034;-66
2020/12/01 04:07:11;;;;;;;18.70;5.77;;;;;;;5.48;100.00;100386.03;5017107;28;20046;-66
2020/12/01 04:09:36;;;;;;;18.83;5.77;;;;;;;5.49;100.00;100385.19;5008214;28;20026;-66
2020/12/01 04:12:02;;;;;;;25.07;6.67;;;;;;;5.48;100.00;100393.81;5013839;28;20076;-66
2020/12/01 04:14:27;;;;;;;18.37;5.73;;;;;;;5.51;100.00;100383.47;5008374;28;20382;-66
2020/12/01 04:16:53;;;;;;;24.00;6.70;;;;;;;5.53;100.00;100384.38;5012287;28;20071;-66
2020/12/01 04:19:18;;;;;;;23.47;6.53;;;;;;;5.51;100.00;100384.34;5005849;28;20337;-66
2020/12/01 04:21:43;;;;;;;23.17;6.80;;;;;;;5.52;100.00;100385.22;5018447;28;20026;-66
2020/12/01 04:24:09;;;;;;;21.07;6.23;;;;;;;5.54;100.00;100388.69;5016234;28;20025;-67
2020/12/01 04:26:34;;;;;;;25.47;6.90;;;;;;;5.52;100.00;100388.69;5023803;28;20025;-66
2020/12/01 04:28:59;;;;;;;21.70;6.63;;;;;;;5.55;100.00;100383.53;5017341;28;20034;-66
2020/12/01 04:31:25;;;;;;;22.37;6.07;;;;;;;5.58;100.00;100386.22;5017664;28;20517;-66
2020/12/01 04:33:50;;;;;;;21.73;6.03;;;;;;;5.63;100.00;100393.19;5010545;28;20036;-65
2020/12/01 04:36:16;;;;;;;26.63;8.10;;;;;;;5.61;100.00;100390.56;5024097;28;20025;-66
2020/12/01 04:38:41;;;;;;;24.90;7.17;;;;;;;5.64;100.00;100395.78;5020781;28;22283;-66
2020/12/01 04:41:09;;;;;;;27.90;7.10;;;;;;;5.63;100.00;100399.22;5015874;28;20639;-66
2020/12/01 04:43:38;;;;;;;27.67;7.90;;;;;;;5.61;100.00;100398.34;5021357;28;20030;-66
2020/12/01 04:46:05;;;;;;;27.23;7.43;;;;;;;5.66;100.00;100407.06;5013151;28;20709;-66
2020/12/01 04:48:38;;;;;;;24.77;7.97;;;;;;;5.67;100.00;100400.16;5022907;28;20288;-66
2020/12/01 04:51:42;;;;;;;28.50;7.27;;;;;;;5.65;100.00;100397.53;5011917;28;20277;-66
2020/12/01 04:54:19;;;;;;;26.70;7.40;;;;;;;5.64;100.00;100413.94;5020609;28;20695;-66
2020/12/01 04:57:02;;;;;;;31.03;7.93;;;;;;;5.69;100.00;100409.69;5016474;28;20288;-66
2020/12/01 04:59:46;;;;;;;34.67;7.97;;;;;;;5.67;100.00;100411.41;5025314;28;20309;-69
2020/12/01 05:02:23;;;;;;;28.17;6.87;;;;;;;5.72;100.00;100414.97;5013190;28;20057;-66
2020/12/01 05:05:15;;;;;;;27.27;7.47;;;;;;;5.75;100.00;100415.00;5010594;28;20304;-65
2020/12/01 05:08:20;;;;;;;22.27;7.63;;;;;;;5.78;100.00;100417.63;5014273;28;20797;-65
2020/12/01 05:10:49;;;;;;;31.53;8.17;;;;;;;5.78;100.00;100420.22;5012295;28;20822;-66
2020/12/01 05:13:26;;;;;;;24.03;7.20;;;;;;;5.79;100.00;100427.16;5015023;28;20287;-65
2020/12/01 05:15:58;;;;;;;29.03;7.50;;;;;;;5.76;100.00;100427.13;5011337;28;20662;-66
2020/12/01 05:18:28;;;;;;;33.30;8.17;;;;;;;5.76;100.00;100427.13;5022492;28;20771;-66
2020/12/01 05:21:05;;;;;;;26.50;7.77;;;;;;;5.78;100.00;100432.31;5007583;28;20292;-66
2020/12/01 05:23:44;;;;;;;33.87;8.30;;;;;;;5.81;100.00;100422.88;5011249;28;20817;-66
2020/12/01 05:26:12;;;;;;;28.77;7.90;;;;;;;5.79;100.00;100434.94;5018246;28;20291;-66
2020/12/01 05:28:46;;;;;;;31.47;7.67;;;;;;;5.80;100.00;100431.50;5007663;28;20295;-66
2020/12/01 05:31:12;;;;;;;36.17;8.80;;;;;;;5.80;100.00;100438.41;5013960;28;20324;-65
2020/12/01 05:33:38;;;;;;;35.23;9.00;;;;;;;5.78;100.00;100440.97;5010345;28;20324;-66
2020/12/01 05:36:03;;;;;;;29.77;8.40;;;;;;;5.80;100.00;100447.06;5018484;28;20423;-65
2020/12/01 05:38:30;;;;;;;30.97;8.63;;;;;;;5.80;100.00;100439.28;5010666;28;20029;-67
2020/12/01 05:40:59;;;;;;;41.10;9.03;;;;;;;5.78;100.00;100446.16;5015835;28;20033;-65
2020/12/01 05:43:35;;;;;;;33.07;8.77;;;;;;;5.77;100.00;100444.44;5016477;28;20719;-66
2020/12/01 05:46:13;;;;;;;40.50;9.40;;;;;;;5.82;100.00;100450.59;5025313;28;20314;-66
2020/12/01 05:48:53;;;;;;;36.13;8.67;;;;;;;5.82;100.00;100453.19;5007437;28;20288;-66
2020/12/01 05:51:35;;;;;;;45.30;9.93;;;;;;;5.84;100.00;100451.47;5010021;28;20351;-66
2020/12/01 05:54:01;;;;;;;31.13;8.43;;;;;;;5.84;100.00;100456.66;5020846;28;20288;-66
2020/12/01 05:56:27;;;;;;;41.50;9.00;;;;;;;5.84;100.00;100454.06;5009613;28;20763;-66
2020/12/01 05:59:00;;;;;;;32.13;7.90;;;;;;;5.85;100.00;100463.59;5011318;28;20038;-66
2020/12/01 06:01:26;;;;;;;48.43;9.83;;;;;;;5.84;100.00;100459.28;5015952;28;20371;-66
2020/12/01 06:04:25;;;;;;;38.53;8.60;;;;;;;5.86;100.00;100467.94;5016059;28;20283;-66
2020/12/01 06:06:57;;;;;;;35.37;9.63;;;;;;;5.88;100.00;100466.25;4997663;28;20300;-66
2020/12/01 06:09:47;;;;;;;32.67;8.57;;;;;;;5.88;100.00;100458.47;5019031;28;20324;-66
2020/12/01 06:12:21;;;;;;;36.93;9.17;;;;;;;5.85;100.00;100465.31;5008730;28;20506;-66
2020/12/01 06:14:58;;;;;;;45.10;10.53;;;;;;;5.84;100.00;100464.47;5025270;28;20287;-66
2020/12/01 06:17:39;;;;;;;41.27;9.00;;;;;;;5.87;100.00;100471.41;5019441;28;20296;-67
2020/12/01 06:20:43;;;;;;;28.10;7.90;;;;;;;5.86;100.00;100478.31;5004964;28;20316;-65
2020/12/01 06:23:25;;;;;;;40.57;9.97;;;;;;;5.87;100.00;100469.69;5010157;28;20284;-67
2020/12/01 06:26:14;;;;;;;45.83;9.90;;;;;;;5.87;100.00;100474.88;5013678;28;20284;-66
2020/12/01 06:28:58;;;;;;;41.87;9.17;;;;;;;5.87;100.00;100477.47;5003220;28;20057;-66
2020/12/01 06:31:38;;;;;;;39.90;10.23;;;;;;;5.89;100.00;100475.78;5023698;28;20281;-65
2020/12/01 06:34:39;;;;;;;41.10;9.23;;;;;;;5.92;100.00;100484.47;5014423;28;20284;-67
2020/12/01 06:37:19;;;;;;;35.23;8.17;;;;;;;5.92;100.00;100481.88;5007205;28;20278;-66
2020/12/01 06:39:49;;;;;;;32.17;7.57;;;;;;;5.89;100.00;100491.34;5010206;28;20667;-66
2020/12/01 06:42:44;;;;;;;40.20;10.07;;;;;;;5.91;100.00;100481.00;5008775;28;20300;-66
2020/12/01 06:45:27;;;;;;;37.73;9.30;;;;;;;5.92;100.00;100484.47;5001608;28;20739;-67
2020/12/01 06:48:00;;;;;;;50.83;9.38;;;;;;;5.90;100.00;100481.88;5010063;28;20302;-67
2020/12/01 06:50:26;;;;;;;36.07;8.80;;;;;;;5.92;100.00;100484.47;5006448;28;20029;-67
2020/12/01 06:53:34;;;;;;;36.17;9.73;;;;;;;5.94;100.00;100488.88;5008163;28;21050;-66
2020/12/01 06:56:13;;;;;;;44.80;10.57;;;;;;;5.89;100.00;100496.53;5008510;28;20079;-67
2020/12/01 06:58:40;;;;;;;35.77;9.23;;;;;;;5.91;100.00;100493.13;5009484;28;20289;-67
2020/12/01 07:01:17;;;;;;;40.33;8.43;;;;;;;5.90;100.00;100500.03;5009529;28;20701;-67
2020/12/01 07:03:44;;;;;;;43.80;9.73;;;;;;;5.88;100.00;100499.97;5009174;28;20269;-68
2020/12/01 07:06:12;;;;;;;44.83;10.87;;;;;;;5.93;100.00;100507.00;5009675;28;20364;-66
2020/12/01 07:08:37;;;;;;;54.20;10.03;;;;;;;5.88;100.00;100507.75;5010828;28;20312;-67
2020/12/01 07:11:13;;;;;;;37.37;9.30;;;;;;;5.92;100.00;100516.50;5014660;28;20397;-67
2020/12/01 07:13:49;;;;;;;38.77;8.37;;;;;;;5.91;100.00;100516.47;5015527;28;21265;-67
2020/12/01 07:16:22;;;;;;;40.00;8.90;;;;;;;5.92;100.00;100526.00;5013262;28;20335;-64
2020/12/01 07:18:48;;;;;;;41.50;9.23;;;;;;;5.89;100.00;100527.66;5021234;28;20409;-67
2020/12/01 07:21:42;;;;;;;36.80;9.30;;;;;;;5.91;100.00;100532.91;5017087;28;20387;-66
2020/12/01 07:24:37;;;;;;;29.57;7.37;;;;;;;5.94;100.00;100539.91;5018737;28;20681;-66
2020/12/01 07:27:16;;;;;;;27.10;6.50;;;;;;;5.92;100.00;100536.38;5022346;28;20351;-66
2020/12/01 07:29:57;;;;;;;27.27;7.30;;;;;;;5.93;100.00;100545.91;5006383;28;20284;-67
2020/12/01 07:32:31;;;;;;;32.90;7.03;;;;;;;5.92;100.00;100541.56;5015653;28;20280;-66
2020/12/01 07:35:15;;;;;;;32.80;6.97;;;;;;;5.94;100.00;100545.09;5018870;28;20276;-67
2020/12/01 07:37:52;;;;;;;30.03;6.73;;;;;;;5.96;100.00;100548.59;5016434;28;20285;-66
2020/12/01 07:40:28;;;;;;;30.37;6.90;;;;;;;5.95;100.00;100552.03;5017816;28;20360;-66
2020/12/01 07:42:59;;;;;;;25.77;6.03;;;;;;;5.97;100.00;100550.34;5014281;28;20317;-66
2020/12/01 07:45:25;;;;;;;34.47;6.93;;;;;;;5.98;100.00;100549.47;5009011;28;20276;-67
2020/12/01 07:48:13;;;;;;;24.80;6.30;;;;;;;5.99;100.00;100548.63;5022441;28;20288;-66
2020/12/01 07:50:39;;;;;;;28.83;6.83;;;;;;;5.96;100.00;100553.78;5009547;28;20027;-66
2020/12/01 07:53:08;;;;;;;24.03;5.73;;;;;;;6.00;100.00;100558.16;5011853;28;20280;-66
2020/12/01 07:55:56;;;;;;;26.20;6.80;;;;;;;6.01;100.00;100562.50;5009812;28;20025;-66
2020/12/01 07:58:25;;;;;;;27.53;6.73;;;;;;;6.01;100.00;100559.91;5009813;28;20292;-66
2020/12/01 08:00:56;;;;;;;27.53;6.47;;;;;;;6.03;100.00;100566.00;5018505;28;20288;-66
2020/12/01 08:03:36;;;;;;;24.93;6.13;;;;;;;6.07;100.00;100573.00;5019712;28;20386;-66
2020/12/01 08:06:09;;;;;;;25.33;6.13;;;;;;;6.09;100.00;100566.13;5005241;28;20350;-64
2020/12/01 08:08:37;;;;;;;27.50;6.35;;;;;;;6.13;100.00;100578.28;5016781;28;20276;-65
2020/12/01 08:11:09;;;;;;;24.03;5.73;;;;;;;6.14;100.00;100585.22;5021307;28;20040;-65
2020/12/01 08:13:36;;;;;;;19.83;5.07;;;;;;;6.19;100.00;100583.59;5020183;28;20272;-66
2020/12/01 08:16:10;;;;;;;22.00;5.50;;;;;;;6.22;100.00;100582.78;5013180;28;20116;-66
2020/12/01 08:18:36;;;;;;;18.13;4.43;;;;;;;6.27;100.00;100581.13;5015092;28;20284;-66
2020/12/01 08:21:01;;;;;;;16.53;4.50;;;;;;;6.29;100.00;100585.50;5024895;28;20806;-67
2020/12/01 08:23:30;;;;;;;16.50;4.97;;;;;;;6.32;100.00;100580.38;5012829;28;20049;-66
2020/12/01 08:26:18;;;;;;;16.93;4.40;;;;;;;6.32;100.00;100589.88;5022276;28;20411;-66
2020/12/01 08:28:55;;;;;;;16.47;4.57;;;;;;;6.40;100.00;100598.66;5019813;28;20352;-66
2020/12/01 08:31:20;;;;;;;19.03;5.00;;;;;;;6.42;100.00;100592.66;5010118;28;20285;-66
2020/12/01 08:33:49;;;;;;;14.37;3.97;;;;;;;6.39;100.00;100597.78;5019638;28;20028;-66
2020/12/01 08:36:20;;;;;;;16.07;4.40;;;;;;;6.44;100.00;100600.47;5010621;28;20032;-67
2020/12/01 08:39:32;;;;;;;14.80;4.63;;;;;;;6.44;100.00;100601.34;5021781;28;20855;-67
2020/12/01 08:42:38;;;;;;;18.30;4.30;;;;;;;6.46;100.00;100616.97;5007229;28;20359;-67
2020/12/01 08:45:03;;;;;;;17.33;4.53;;;;;;;6.46;100.00;100615.22;5020552;28;20647;-67
2020/12/01 08:47:30;;;;;;;20.93;4.47;;;;;;;6.45;100.00;100617.81;5027198;28;20026;-66
2020/12/01 08:49:56;;;;;;;14.83;4.37;;;;;;;6.45;100.00;100618.69;5026336;28;20121;-67
2020/12/01 08:52:40;;;;;;;13.67;4.13;;;;;;;6.45;100.00;100629.06;5025412;28;20699;-66
2020/12/01 08:55:31;;;;;;;16.10;4.27;;;;;;;6.50;100.00;100633.47;5030880;28;20496;-66
2020/12/01 08:58:22;;;;;;;19.43;4.57;;;;;;;6.52;100.00;100634.34;5027878;28;20284;-67
2020/12/01 09:01:01;;;;;;;13.30;3.90;;;;;;;6.53;100.00;100644.75;5026929;28;20083;-67
2020/12/01 09:03:29;;;;;;;17.40;4.70;;;;;;;6.58;100.00;100634.47;5013497;28;20026;-67
2020/12/01 09:05:56;;;;;;;15.10;4.77;;;;;;;6.58;100.00;100637.94;5014258;28;20049;-67
2020/12/01 09:11:10;;;;;;;18.07;4.90;;;;;;;6.69;100.00;100653.72;5018738;28;20272;-67
2020/12/01 09:13:39;;;;;;;15.30;4.30;;;;;;;6.67;100.00;100652.81;5024399;28;20352;-67
2020/12/01 09:16:31;;;;;;;13.73;4.20;;;;;;;6.63;100.00;100653.59;5018726;28;20064;-66
2020/12/01 09:24:18;;;;;;;14.33;4.03;;;;;;;6.74;100.00;100670.25;5014530;28;20112;-65
2020/12/01 09:26:44;;;;;;;13.67;4.23;;;;;;;6.74;100.00;100670.25;5017102;28;20083;-65
2020/12/01 09:29:09;;;;;;;14.27;4.30;;;;;;;6.84;100.00;100666.94;5020913;28;20022;-66
2020/12/01 09:31:40;;;;;;;13.60;4.60;;;;;;;6.88;100.00;100671.31;5017730;28;20040;-66
2020/12/01 09:34:05;;;;;;;12.10;4.00;;;;;;;6.92;100.00;100674.88;5021323;28;20029;-67
2020/12/01 09:36:31;;;;;;;11.17;3.63;;;;;;;6.91;100.00;100678.31;5020961;28;20034;-66
2020/12/01 09:38:56;;;;;;;16.07;4.40;;;;;;;6.92;100.00;100675.75;5022921;28;20029;-66
2020/12/01 09:41:24;;;;;;;14.20;4.13;;;;;;;6.98;100.00;100682.75;5016170;28;20034;-67
2020/12/01 09:43:57;;;;;;;12.30;4.00;;;;;;;6.97;100.00;100692.28;5027046;28;20120;-67
2020/12/01 09:46:33;;;;;;;13.37;4.30;;;;;;;7.04;100.00;100694.13;5018174;28;20033;-67
2020/12/01 09:49:02;;;;;;;13.13;3.57;;;;;;;7.07;100.00;100695.91;5011113;28;20097;-67
2020/12/01 09:51:29;;;;;;;12.33;3.73;;;;;;;7.07;100.00;100700.22;5023443;28;20034;-67
2020/12/01 09:59:23;;;;;;;12.03;3.83;;;;;;;6.99;100.00;100703.56;5010800;28;20471;-66
2020/12/01 10:34:31;;;;;;;19.25;4.57;;;;;;;7.31;100.00;100724.00;5011451;28;20022;-67
2020/12/01 10:36:57;;;;;;;17.93;5.17;;;;;;;7.31;100.00;100724.88;5024901;28;20030;-67
2020/12/01 10:39:23;;;;;;;21.10;5.23;;;;;;;7.29;100.00;100726.59;5014893;28;20706;-66
2020/12/01 10:41:50;;;;;;;20.97;4.47;;;;;;;7.32;100.00;100730.97;5013446;28;20423;-67
2020/12/01 10:44:16;;;;;;;19.83;5.77;;;;;;;7.33;100.00;100728.38;5021205;28;20024;-68
2020/12/01 10:46:45;;;;;;;22.13;5.50;;;;;;;7.37;100.00;100737.09;5028317;28;20029;-67
2020/12/01 10:49:10;;;;;;;21.00;5.20;;;;;;;7.35;100.00;100744.00;5022227;28;20048;-66
2020/12/01 10:51:36;;;;;;;27.17;6.23;;;;;;;7.37;100.00;100744.03;5024614;28;20029;-67
2020/12/01 10:54:01;;;;;;;19.50;4.97;;;;;;;7.37;100.00;100744.03;5014065;28;20099;-67
2020/12/01 10:56:26;;;;;;;18.10;5.10;;;;;;;7.35;100.00;100751.81;5014958;28;20033;-68
2020/12/01 10:58:52;;;;;;;19.33;5.07;;;;;;;7.37;100.00;100754.44;5028100;28;20152;-67
2020/12/01 11:01:17;;;;;;;18.60;4.43;;;;;;;7.34;100.00;100750.94;5011204;28;20026;-68
2020/12/01 11:03:42;;;;;;;19.93;5.10;;;;;;;7.33;100.00;100748.31;5012922;28;20399;-67
2020/12/01 11:06:08;;;;;;;18.37;4.43;;;;;;;7.30;100.00;100749.16;5019001;28;20026;-68
2020/12/01 11:08:33;;;;;;;17.23;4.83;;;;;;;7.24;100.00;100750.75;5023427;28;20524;-67
2020/12/01 11:10:59;;;;;;;12.83;3.83;;;;;;;7.17;100.00;100752.41;5020666;28;20408;-67
2020/12/01 11:13:25;;;;;;;23.93;5.30;;;;;;;7.19;100.00;100755.03;5018711;28;20072;-67
2020/12/01 11:15:50;;;;;;;22.90;5.23;;;;;;;7.20;100.00;100762.84;5024472;28;20071;-68
2020/12/01 11:18:15;;;;;;;24.00;5.27;;;;;;;7.26;100.00;100773.34;5018787;28;20026;-68
2020/12/01 11:20:41;;;;;;;23.60;5.17;;;;;;;7.32;100.00;100777.78;5019193;28;20034;-66
2020/12/01 11:23:06;;;;;;;17.60;5.00;;;;;;;7.40;100.00;100773.59;5025104;28;20247;-67
2020/12/01 11:25:31;;;;;;;20.50;4.50;;;;;;;7.45;100.00;100777.13;5029083;28;20036;-67
2020/12/01 11:27:57;;;;;;;14.07;3.87;;;;;;;7.37;100.00;100783.91;5010643;28;20498;-68
2020/12/01 11:30:24;;;;;;;18.80;4.50;;;;;;;7.29;100.00;100794.22;5015000;28;20030;-68
2020/12/01 11:32:49;;;;;;;17.67;4.37;;;;;;;7.31;100.00;100797.72;5021480;28;20022;-67
2020/12/01 11:35:17;;;;;;;15.73;4.17;;;;;;;7.23;100.00;100798.44;5029830;28;20403;-68
2020/12/01 11:37:42;;;;;;;13.70;4.07;;;;;;;7.17;100.00;100803.53;5023575;28;20044;-67
2020/12/01 11:40:09;;;;;;;13.03;3.43;;;;;;;7.11;100.00;100809.50;5022812;28;20400;-67
2020/12/01 11:42:34;;;;;;;15.40;3.27;;;;;;;7.14;100.00;100811.28;5021038;28;20033;-67
2020/12/01 11:45:00;;;;;;;11.70;3.03;;;;;;;7.18;100.00;100818.28;5026849;28;20039;-67
2020/12/01 11:47:25;;;;;;;13.23;3.63;;;;;;;7.14;100.00;100816.47;5026588;28;20518;-68
2020/12/01 11:49:51;;;;;;;13.90;3.20;;;;;;;7.15;100.00;100820.81;5021226;28;20072;-67
2020/12/01 11:52:16;;;;;;;13.07;3.50;;;;;;;7.12;100.00;100821.66;5019476;28;20088;-67
2020/12/01 11:54:41;;;;;;;11.67;3.70;;;;;;;7.16;100.00;100823.47;5015907;28;20026;-67
2020/12/01 11:57:07;;;;;;;14.67;4.40;;;;;;;7.20;100.00;100824.41;5017158;28;20033;-67
2020/12/01 11:59:32;;;;;;;17.57;4.50;;;;;;;7.18;100.00;100823.50;5028994;28;20397;-67
2020/12/01 12:01:57;;;;;;;18.53;5.03;;;;;;;7.17;100.00;100826.94;5014285;28;20113;-67
2020/12/01 12:04:23;;;;;;;19.00;5.77;;;;;;;7.16;100.00;100830.41;5019434;28;20030;-67
2020/12/01 12:06:49;;;;;;;18.33;5.73;;;;;;;7.14;100.00;100832.06;5019306;28;20553;-66
2020/12/01 12:09:14;;;;;;;18.03;6.03;;;;;;;7.14;100.00;100832.94;5017015;28;20021;-68
2020/12/01 12:11:39;;;;;;;24.13;6.10;;;;;;;7.11;100.00;100835.50;5018315;28;20026;-67
2020/12/01 12:14:05;;;;;;;19.57;6.00;;;;;;;7.16;100.00;100839.09;5015103;28;20507;-67
2020/12/01 12:16:31;;;;;;;25.70;6.60;;;;;;;7.16;100.00;100843.41;5013665;28;20029;-68
2020/12/01 12:18:57;;;;;;;21.73;6.87;;;;;;;7.07;100.00;100851.91;5019990;28;20024;-68